Acton, Massachusetts
Current Conditions -  °F | °C
As of 3:27 PM on Monday 26 Jan 2015 (Local Time) from KBED Reporting Station
Light Snow Light Snow  
Wind Chill: 10°   Ceiling: 1300
Heat Index: 21°   Visibility: 4mi
Dew Point: 17°   Wind: 10mph
Humidity: 85%   Direction: 20°NNE
Pressure: 30.04"   Gusts: NA
Location:  42.49°N, 71.43°W
Report Text: KBED 262027Z 02009KT 4SM -SN BR OVC013 M06/M08 A3004 RMK AO2 SNB1959 P0000 T10611083
Loading
Personal Weather Stations






























Interactive Weather Map New forecast layout! Learn more

10-Day Weather Forecast

Advertisements
Track Severe Weather on mobile